Time;durP1;ratioP1;P1;durP2;ratioP2;P2;SDS_P1;SDS_P2;PMS_P1;PMS_P2;Temp;Humidity;BMP_temperature;BMP_pressure;BME280_temperature;BME280_humidity;BME280_pressure;Samples;Min_cycle;Max_cycle;Signal;HPM_P1;HPM_P2
2022/01/08 00:02:18;;;;;;;;;;;;;;;0.82;90.75;99808.09;4976926;28;1222;-88
2022/01/08 00:04:43;;;;;;;;;;;;;;;0.77;90.88;99806.91;4992592;28;1653;-87
2022/01/08 00:07:09;;;;;;;;;;;;;;;0.72;90.86;99808.66;4957879;28;1340;-88
2022/01/08 00:09:34;;;;;;;;;;;;;;;0.75;91.04;99810.91;4957877;28;1894;-88
2022/01/08 00:11:59;;;;;;;;;;;;;;;0.86;91.04;99812.75;4975094;28;1005;-89
2022/01/08 00:14:25;;;;;;;;;;;;;;;0.88;90.99;99810.66;4971704;28;1658;-89
2022/01/08 00:16:51;;;;;;;;;;;;;;;0.87;91.06;99809.00;4977038;28;1320;-88
2022/01/08 00:19:17;;;;;;;;;;;;;;;0.85;91.08;99805.72;4994433;28;1218;-89
2022/01/08 00:21:42;;;;;;;;;;;;;;;0.91;91.13;99804.00;4976999;28;1304;-89
2022/01/08 00:24:07;;;;;;;;;;;;;;;1.00;90.99;99797.19;4976912;28;1180;-88
2022/01/08 00:26:32;;;;;;;;;;;;;;;1.05;90.95;99800.81;4977233;28;1014;-88
2022/01/08 00:28:59;;;;;;;;;;;;;;;1.03;90.87;99792.13;4994288;28;1898;-89
2022/01/08 00:31:24;;;;;;;;;;;;;;;1.07;91.00;99789.81;4977134;28;1225;-89
2022/01/08 00:33:49;;;;;;;;;;;;;;;1.09;90.92;99791.22;4976769;28;977;-88
2022/01/08 00:36:14;;;;;;;;;;;;;;;1.02;90.97;99787.78;4976990;28;994;-88
2022/01/08 00:38:39;;;;;;;;;;;;;;;1.02;90.91;99787.00;4993993;28;1622;-88
2022/01/08 00:41:04;;;;;;;;;;;;;;;0.98;91.13;99783.13;4976939;28;1460;-89
2022/01/08 00:43:30;;;;;;;;;;;;;;;1.02;91.15;99789.69;4976699;28;1170;-88
2022/01/08 00:45:55;;;;;;;;;;;;;;;0.93;91.20;99783.84;4980731;28;1257;-89
2022/01/08 00:48:20;;;;;;;;;;;;;;;0.88;91.34;99785.59;4980502;28;1898;-88
2022/01/08 00:50:45;;;;;;;;;;;;;;;0.84;91.35;99798.72;4980703;28;1466;-88
2022/01/08 00:53:10;;;;;;;;;;;;;;;0.94;91.42;99798.94;4980539;28;1559;-88
2022/01/08 00:55:35;;;;;;;;;;;;;;;0.95;91.35;99791.66;4980680;28;912;-88
2022/01/08 00:58:00;;;;;;;;;;;;;;;0.91;91.40;99804.81;4980536;28;1314;-88
2022/01/08 01:00:26;;;;;;;;;;;;;;;1.01;91.62;99805.06;4997860;28;1585;-88
2022/01/08 01:02:53;;;;;;;;;;;;;;;1.02;91.63;99792.41;4980515;28;1022;-88
2022/01/08 01:05:19;;;;;;;;;;;;;;;1.06;91.49;99791.69;4980402;28;1205;-88
2022/01/08 01:07:44;;;;;;;;;;;;;;;1.09;91.66;99785.00;4980342;28;1340;-88
2022/01/08 01:10:10;;;;;;;;;;;;;;;1.03;91.49;99786.75;4980219;28;1899;-88
2022/01/08 01:12:35;;;;;;;;;;;;;;;0.98;91.63;99783.94;4997528;28;897;-88
2022/01/08 01:15:01;;;;;;;;;;;;;;;0.96;91.78;99786.06;4980330;28;1273;-88
2022/01/08 01:17:26;;;;;;;;;;;;;;;0.94;91.67;99781.94;4997655;28;1264;-88
2022/01/08 01:19:51;;;;;;;;;;;;;;;0.97;91.82;99781.47;4997710;28;855;-89
2022/01/08 01:22:19;;;;;;;;;;;;;;;0.96;91.72;99786.06;4980092;28;953;-88
2022/01/08 01:24:46;;;;;;;;;;;;;;;1.01;91.71;99791.56;4980128;28;1621;-88
2022/01/08 01:30:06;;;;;;;;;;;;;;;0.94;91.73;99787.34;4997542;28;1975;-88
2022/01/08 01:46:59;;;;;;;;;;;;;;;0.77;91.93;99794.50;4997467;28;672;-88
2022/01/08 01:48:58;;;;;;;;;;;;;;;0.81;91.94;99791.09;4975907;28;1890;-88
2022/01/08 01:51:23;;;;;;;;;;;;;;;0.92;91.96;99781.38;4979471;28;1025;-88
2022/01/08 01:53:50;;;;;;;;;;;;;;;0.93;92.00;99786.53;4979647;28;1159;-88
2022/01/08 01:56:15;;;;;;;;;;;;;;;0.98;91.85;99788.50;4979410;28;1296;-88
2022/01/08 01:58:40;;;;;;;;;;;;;;;1.07;91.68;99787.94;4996856;28;1251;-88
2022/01/08 02:01:06;;;;;;;;;;;;;;;1.13;91.69;99786.16;4996916;28;917;-88
2022/01/08 02:03:31;;;;;;;;;;;;;;;1.17;91.60;99789.22;4979477;28;1309;-88
2022/01/08 02:05:56;;;;;;;;;;;;;;;1.00;91.31;99787.25;4979581;28;985;-88
2022/01/08 02:08:21;;;;;;;;;;;;;;;0.94;91.60;99785.47;4978923;28;1893;-89
2022/01/08 02:10:48;;;;;;;;;;;;;;;0.92;91.65;99784.91;4979528;28;1080;-89
2022/01/08 02:13:23;;;;;;;;;;;;;;;0.85;91.73;99778.00;5011999;28;1225;-89
2022/01/08 02:15:53;;;;;;;;;;;;;;;0.86;91.64;99779.59;5011674;28;1184;-89
2022/01/08 02:18:19;;;;;;;;;;;;;;;0.97;91.74;99778.78;4979269;28;1237;-88
2022/01/08 02:20:44;;;;;;;;;;;;;;;0.92;91.69;99778.69;4979188;28;1201;-88
2022/01/08 02:23:09;;;;;;;;;;;;;;;0.92;91.81;99784.06;4979185;28;1591;-88
2022/01/08 02:25:34;;;;;;;;;;;;;;;0.90;91.87;99784.31;4979010;28;1009;-88
2022/01/08 02:28:03;;;;;;;;;;;;;;;0.97;91.85;99782.31;4979240;28;1178;-88
2022/01/08 02:30:28;;;;;;;;;;;;;;;1.00;91.85;99776.47;4978833;28;1898;-88
2022/01/08 02:32:53;;;;;;;;;;;;;;;1.04;91.76;99772.22;4996333;28;1208;-88
2022/01/08 02:35:21;;;;;;;;;;;;;;;1.06;91.78;99772.00;4979237;28;1217;-89
2022/01/08 02:37:46;;;;;;;;;;;;;;;1.04;91.97;99772.22;4978572;28;1367;-89
2022/01/08 02:40:12;;;;;;;;;;;;;;;0.99;91.93;99777.50;4979022;28;1379;-89
2022/01/08 02:42:40;;;;;;;;;;;;;;;0.86;92.11;99776.91;4978574;28;1319;-89
2022/01/08 02:45:06;;;;;;;;;;;;;;;0.93;92.08;99775.75;5011344;28;1417;-89
2022/01/08 02:47:31;;;;;;;;;;;;;;;0.93;92.07;99775.75;4978534;28;1479;-88
2022/01/08 02:49:56;;;;;;;;;;;;;;;0.93;92.01;99774.94;4978902;28;1906;-89
2022/01/08 02:52:22;;;;;;;;;;;;;;;0.89;92.07;99771.88;4978401;28;914;-88
2022/01/08 02:54:47;;;;;;;;;;;;;;;0.91;92.20;99777.88;4978578;28;1205;-88
2022/01/08 02:57:12;;;;;;;;;;;;;;;0.97;92.20;99776.91;4978291;28;1592;-88
2022/01/08 02:59:38;;;;;;;;;;;;;;;0.96;92.11;99786.06;4978229;28;1733;-89
2022/01/08 03:02:03;;;;;;;;;;;;;;;0.98;92.22;99780.44;4978393;28;1182;-89
2022/01/08 03:04:28;;;;;;;;;;;;;;;1.01;92.20;99788.88;4978243;28;1174;-89
2022/01/08 03:06:53;;;;;;;;;;;;;;;0.89;92.15;99798.00;4977445;28;1543;-89
2022/01/08 03:09:18;;;;;;;;;;;;;;;0.77;92.18;99791.81;4995336;28;1969;-88
2022/01/08 03:11:43;;;;;;;;;;;;;;;0.80;92.34;99789.47;4978054;28;1166;-89
2022/01/08 03:14:09;;;;;;;;;;;;;;;0.90;92.27;99788.88;4978061;28;1295;-89
2022/01/08 03:16:34;;;;;;;;;;;;;;;0.90;92.29;99787.00;4978091;28;913;-89
2022/01/08 03:19:08;;;;;;;;;;;;;;;0.93;92.38;99783.03;4978018;28;1192;-89
2022/01/08 03:21:35;;;;;;;;;;;;;;;0.84;92.44;99771.78;4978029;28;1387;-89
2022/01/08 03:24:02;;;;;;;;;;;;;;;0.82;92.36;99781.97;4995837;28;843;-89
2022/01/08 03:26:27;;;;;;;;;;;;;;;0.86;92.44;99776.91;4978082;28;1378;-89
2022/01/08 03:28:53;;;;;;;;;;;;;;;0.83;92.29;99775.53;4977731;28;1955;-89
2022/01/08 03:31:20;;;;;;;;;;;;;;;0.79;92.49;99777.03;4988928;28;1202;-90
2022/01/08 03:33:45;;;;;;;;;;;;;;;0.77;92.46;99781.84;5001815;28;1630;-90
2022/01/08 03:36:11;;;;;;;;;;;;;;;0.58;92.49;99778.44;5000187;28;1428;-90
2022/01/08 04:43:14;;;;;;;;;;;;;;;0.91;92.67;99788.66;5032766;26;1425;-91
2022/01/08 04:45:40;;;;;;;;;;;;;;;0.93;92.68;99789.25;5034027;28;869;-90
2022/01/08 04:48:06;;;;;;;;;;;;;;;0.91;92.62;99799.41;5016221;28;1251;-90
2022/01/08 04:50:31;;;;;;;;;;;;;;;0.84;92.71;99796.03;5016287;28;1965;-89
2022/01/08 04:52:57;;;;;;;;;;;;;;;0.80;92.74;99800.22;5033943;28;997;-90
2022/01/08 04:55:23;;;;;;;;;;;;;;;0.78;92.85;99805.03;5015958;28;1256;-90
2022/01/08 04:57:48;;;;;;;;;;;;;;;0.75;92.75;99803.63;5016161;28;1275;-90
2022/01/08 05:00:15;;;;;;;;;;;;;;;0.79;92.74;99805.84;5016153;28;1170;-90
2022/01/08 05:02:40;;;;;;;;;;;;;;;0.78;92.81;99813.09;5016044;28;1264;-91
2022/01/08 05:05:05;;;;;;;;;;;;;;;0.71;92.76;99810.53;5016038;28;1296;-90
2022/01/08 05:07:30;;;;;;;;;;;;;;;0.59;92.91;99812.41;5015882;28;1362;-90
2022/01/08 05:09:55;;;;;;;;;;;;;;;0.62;92.89;99814.63;5015829;28;1969;-89
2022/01/08 05:12:21;;;;;;;;;;;;;;;0.67;92.96;99813.94;5016257;28;754;-90
2022/01/08 05:14:46;;;;;;;;;;;;;;;0.64;93.03;99815.22;5015994;28;1298;-89
2022/01/08 05:17:35;;;;;;;;;;;;;;;0.69;92.99;99825.28;5016058;28;1223;-91
2022/01/08 05:20:03;;;;;;;;;;;;;;;0.73;92.97;99824.59;5016463;28;1346;-90
2022/01/08 05:22:30;;;;;;;;;;;;;;;0.68;93.07;99829.84;5016095;28;1205;-90
2022/01/08 05:24:56;;;;;;;;;;;;;;;0.69;93.02;99822.59;5015822;28;1427;-90
2022/01/08 05:27:22;;;;;;;;;;;;;;;0.72;93.06;99830.22;5016355;28;1173;-90
2022/01/08 05:30:10;;;;;;;;;;;;;;;0.73;93.38;99829.97;5016540;28;1891;-90
2022/01/08 05:32:35;;;;;;;;;;;;;;;0.71;93.01;99832.06;5019574;28;1694;-91
2022/01/08 05:35:02;;;;;;;;;;;;;;;0.75;93.08;99825.19;5038173;28;878;-90
2022/01/08 05:37:28;;;;;;;;;;;;;;;0.75;93.11;99830.56;5020082;28;1402;-92
2022/01/08 05:39:54;;;;;;;;;;;;;;;0.69;93.07;99838.75;5019695;28;1191;-92
2022/01/08 05:42:19;;;;;;;;;;;;;;;0.65;93.03;99837.59;5019479;28;1223;-93
2022/01/08 05:44:44;;;;;;;;;;;;;;;0.69;93.13;99844.13;5019818;28;1184;-91
2022/01/08 05:47:10;;;;;;;;;;;;;;;0.73;93.15;99858.78;5019792;28;1386;-91
2022/01/08 05:49:35;;;;;;;;;;;;;;;0.65;93.04;99859.94;5037492;28;1878;-91
2022/01/08 05:52:01;;;;;;;;;;;;;;;0.62;93.07;99854.19;5019748;28;1227;-90
2022/01/08 05:54:26;;;;;;;;;;;;;;;0.65;93.06;99861.81;5020060;28;1217;-91
2022/01/08 05:56:51;;;;;;;;;;;;;;;0.61;93.19;99853.38;5019459;28;1359;-91
2022/01/08 05:59:17;;;;;;;;;;;;;;;0.69;93.20;99861.09;5019911;28;1370;-91
2022/01/08 06:01:42;;;;;;;;;;;;;;;0.72;93.22;99862.53;5019561;28;1330;-92
2022/01/08 06:04:07;;;;;;;;;;;;;;;0.76;93.14;99861.03;5019888;28;1326;-92
2022/01/08 06:06:33;;;;;;;;;;;;;;;0.75;93.05;99860.22;5019350;28;1326;-92
2022/01/08 06:08:58;;;;;;;;;;;;;;;0.85;93.10;99866.91;5019070;28;1894;-91
2022/01/08 06:11:23;;;;;;;;;;;;;;;0.90;92.96;99862.44;5019192;28;1354;-91
2022/01/08 06:13:48;;;;;;;;;;;;;;;0.91;92.74;99868.66;5020079;28;1366;-91
2022/01/08 06:16:13;;;;;;;;;;;;;;;0.92;92.61;99857.66;5020205;28;1248;-91
2022/01/08 06:18:39;;;;;;;;;;;;;;;0.96;92.49;99868.75;5020102;28;1414;-90
2022/01/08 06:21:05;;;;;;;;;;;;;;;0.95;92.31;99867.13;5019551;28;1220;-90
2022/01/08 06:23:30;;;;;;;;;;;;;;;0.91;92.23;99868.66;5025439;28;1228;-91
2022/01/08 06:25:55;;;;;;;;;;;;;;;0.92;92.32;99873.00;5020860;28;1156;-90
2022/01/08 06:28:20;;;;;;;;;;;;;;;0.91;92.32;99869.47;5023062;28;1193;-91
2022/01/08 06:30:47;;;;;;;;;;;;;;;0.84;92.41;99870.63;5023850;28;1974;-91
2022/01/08 06:33:12;;;;;;;;;;;;;;;0.83;92.46;99877.91;5022724;28;1243;-91
2022/01/08 06:35:37;;;;;;;;;;;;;;;0.85;92.37;99883.84;5024780;28;1165;-91
2022/01/08 06:38:02;;;;;;;;;;;;;;;0.84;92.33;99876.84;5022578;28;1322;-91
2022/01/08 06:40:28;;;;;;;;;;;;;;;0.81;92.33;99882.69;5022677;28;1193;-90
2022/01/08 06:42:53;;;;;;;;;;;;;;;0.83;92.36;99885.16;5030450;28;1287;-91
2022/01/08 06:45:18;;;;;;;;;;;;;;;0.78;92.46;99885.84;5028655;28;966;-90
2022/01/08 06:47:45;;;;;;;;;;;;;;;0.75;92.36;99884.44;5019441;28;1260;-90
2022/01/08 06:50:10;;;;;;;;;;;;;;;0.72;92.39;99892.97;5019703;28;1894;-90
2022/01/08 06:52:36;;;;;;;;;;;;;;;0.79;92.48;99884.78;5018743;28;1211;-90
2022/01/08 06:55:01;;;;;;;;;;;;;;;0.82;92.40;99889.72;5027967;28;1356;-90
2022/01/08 06:57:26;;;;;;;;;;;;;;;0.87;92.30;99899.78;5034128;28;1205;-91
2022/01/08 06:59:51;;;;;;;;;;;;;;;0.86;92.37;99903.53;5033948;28;1248;-91
2022/01/08 07:02:16;;;;;;;;;;;;;;;0.82;92.26;99899.69;5030197;28;1192;-90
2022/01/08 07:04:42;;;;;;;;;;;;;;;0.81;92.23;99898.84;5018133;28;1355;-91
2022/01/08 07:07:07;;;;;;;;;;;;;;;0.77;92.31;99904.94;5017965;28;1235;-91
2022/01/08 07:09:32;;;;;;;;;;;;;;;0.73;92.36;99905.41;5021345;28;1933;-92
2022/01/08 07:11:57;;;;;;;;;;;;;;;0.77;92.41;99905.75;5025258;28;1076;-93
2022/01/08 07:14:23;;;;;;;;;;;;;;;0.81;92.43;99901.53;5042758;28;1260;-94
2022/01/08 07:16:49;;;;;;;;;;;;;;;0.85;92.34;99901.91;5041499;28;1261;-95
2022/01/08 07:19:14;;;;;;;;;;;;;;;0.82;92.32;99903.19;5035212;28;1307;-92
2022/01/08 07:21:39;;;;;;;;;;;;;;;0.80;92.10;99904.47;5021927;28;1319;-92
2022/01/08 07:24:04;;;;;;;;;;;;;;;0.80;92.12;99899.91;5023240;28;1343;-93
2022/01/08 07:26:30;;;;;;;;;;;;;;;0.73;92.11;99905.41;5028316;28;1260;-91
2022/01/08 07:29:20;;;;;;;;;;;;;;;0.73;92.27;99904.56;5025001;28;1909;-93
2022/01/08 07:31:45;;;;;;;;;;;;;;;0.77;92.46;99915.72;5019754;28;1350;-91
2022/01/08 07:34:10;;;;;;;;;;;;;;;0.74;92.51;99917.00;5017880;28;1264;-92
2022/01/08 07:36:35;;;;;;;;;;;;;;;0.73;92.58;99918.88;5018682;28;1228;-92
2022/01/08 07:39:01;;;;;;;;;;;;;;;0.70;92.61;99916.63;5020606;28;1205;-93
2022/01/08 07:41:26;;;;;;;;;;;;;;;0.65;92.78;99921.06;5023901;28;1186;-92
2022/01/08 07:43:51;;;;;;;;;;;;;;;0.61;92.70;99928.78;5023387;28;1180;-92
2022/01/08 07:46:16;;;;;;;;;;;;;;;0.64;92.84;99920.25;5024791;28;1041;-92
2022/01/08 07:48:43;;;;;;;;;;;;;;;0.67;92.77;99927.06;5028457;28;1883;-93
2022/01/08 07:51:09;;;;;;;;;;;;;;;0.64;92.82;99936.41;5049077;28;894;-92
2022/01/08 07:53:35;;;;;;;;;;;;;;;0.65;92.89;99940.75;5028295;28;1247;-92
2022/01/08 07:56:00;;;;;;;;;;;;;;;0.65;92.82;99934.53;5023243;28;1297;-92
2022/01/08 07:58:25;;;;;;;;;;;;;;;0.66;92.79;99944.25;5023389;28;1291;-92
2022/01/08 08:00:51;;;;;;;;;;;;;;;0.64;92.74;99932.88;5021977;28;1098;-93
2022/01/08 08:03:17;;;;;;;;;;;;;;;0.70;92.80;99929.25;5014104;28;1520;-92
2022/01/08 08:05:42;;;;;;;;;;;;;;;0.71;92.77;99930.91;5002073;28;1277;-91
2022/01/08 08:08:08;;;;;;;;;;;;;;;0.73;92.84;99929.63;5008220;28;1275;-91
2022/01/08 08:10:37;;;;;;;;;;;;;;;0.76;92.67;99936.44;5008251;28;1945;-93
2022/01/08 08:13:02;;;;;;;;;;;;;;;0.79;92.77;99933.28;5010038;28;1454;-93
2022/01/08 08:30:47;;;;;;;;;;;;;;;0.83;92.78;99937.16;5001315;28;1947;-90
2022/01/08 08:33:12;;;;;;;;;;;;;;;0.94;92.63;99930.97;4981237;28;1313;-89
2022/01/08 08:35:38;;;;;;;;;;;;;;;1.04;92.32;99944.69;4999901;28;1509;-90
2022/01/08 08:38:03;;;;;;;;;;;;;;;1.00;92.04;99940.00;5001773;28;1257;-90
2022/01/08 08:40:29;;;;;;;;;;;;;;;1.02;92.20;99944.09;5000935;28;1481;-90
2022/01/08 08:42:55;;;;;;;;;;;;;;;1.04;92.14;99952.78;4979684;28;1221;-90
2022/01/08 08:45:21;;;;;;;;;;;;;;;1.11;91.89;99950.78;4981829;28;1177;-90
2022/01/08 08:47:46;;;;;;;;;;;;;;;1.11;91.93;99948.09;4985043;28;1230;-89
2022/01/08 08:50:15;;;;;;;;;;;;;;;1.08;92.01;99943.19;4984803;28;1867;-90
2022/01/08 08:52:41;;;;;;;;;;;;;;;1.12;91.95;99938.97;4978945;28;1119;-90
2022/01/08 08:55:06;;;;;;;;;;;;;;;1.18;91.87;99944.50;4978468;28;1134;-90
2022/01/08 08:57:32;;;;;;;;;;;;;;;1.16;91.90;99938.50;4980685;28;1303;-89
2022/01/08 08:59:57;;;;;;;;;;;;;;;1.13;91.66;99945.16;4980772;28;1159;-90
2022/01/08 09:02:23;;;;;;;;;;;;;;;1.14;91.67;99944.94;4979794;28;1348;-90
2022/01/08 09:04:49;;;;;;;;;;;;;;;1.21;91.48;99946.69;4980794;28;1115;-90
2022/01/08 09:07:17;;;;;;;;;;;;;;;1.26;91.44;99941.44;4984126;28;1312;-90
2022/01/08 09:09:44;;;;;;;;;;;;;;;1.29;91.26;99943.66;4984793;28;1887;-90
2022/01/08 09:12:10;;;;;;;;;;;;;;;1.34;90.92;99949.19;4985000;28;1428;-89
2022/01/08 09:14:35;;;;;;;;;;;;;;;1.33;91.00;99947.53;4985124;28;1087;-89
2022/01/08 09:17:03;;;;;;;;;;;;;;;1.26;91.22;99947.66;4982757;28;1189;-90
2022/01/08 09:19:29;;;;;;;;;;;;;;;1.17;91.24;99950.94;4983172;28;1274;-89
2022/01/08 09:22:04;;;;;;;;;;;;;;;1.12;91.35;99957.81;4985612;28;1641;-91
2022/01/08 09:24:30;;;;;;;;;;;;;;;1.12;91.36;99946.22;4991122;28;1235;-89
2022/01/08 09:26:55;;;;;;;;;;;;;;;1.12;91.42;99949.75;4998358;28;1403;-90
2022/01/08 09:29:20;;;;;;;;;;;;;;;1.22;91.53;99951.03;4987174;28;1894;-90
2022/01/08 09:31:57;;;;;;;;;;;;;;;1.25;91.47;99945.19;4995464;28;1242;-90
2022/01/08 09:34:26;;;;;;;;;;;;;;;1.24;91.36;99946.25;4993897;28;1289;-92
2022/01/08 09:36:51;;;;;;;;;;;;;;;1.24;91.33;99946.25;4989170;28;1273;-92
2022/01/08 09:49:02;;;;;;;;;;;;;;;1.33;91.32;99952.94;5017217;28;1253;-93
2022/01/08 09:52:03;;;;;;;;;;;;;;;1.28;91.54;99947.41;4993136;28;1434;-90
2022/01/08 09:54:57;;;;;;;;;;;;;;;1.19;91.77;99941.56;5025488;28;957;-92
2022/01/08 09:57:25;;;;;;;;;;;;;;;1.21;91.91;99944.81;5025765;28;1280;-91
2022/01/08 09:59:53;;;;;;;;;;;;;;;1.24;91.88;99941.69;5029338;28;986;-92
2022/01/08 10:02:22;;;;;;;;;;;;;;;1.32;91.91;99941.31;5033054;28;1218;-92
2022/01/08 10:04:48;;;;;;;;;;;;;;;1.32;91.98;99945.91;5009630;28;1221;-90
2022/01/08 10:07:32;;;;;;;;;;;;;;;1.28;92.05;99937.44;5012177;28;1275;-93
2022/01/08 10:10:13;;;;;;;;;;;;;;;1.28;92.13;99940.13;5012028;28;1898;-92
2022/01/08 10:18:42;;;;;;;;;;;;;;;1.43;92.06;99927.03;5028065;28;1231;-92
2022/01/08 10:21:34;;;;;;;;;;;;;;;1.45;91.89;99916.00;5011780;28;1229;-91
2022/01/08 10:24:03;;;;;;;;;;;;;;;1.48;91.81;99916.34;5018579;28;1340;-93
2022/01/08 10:26:34;;;;;;;;;;;;;;;1.55;91.89;99913.53;5014106;28;1700;-92
2022/01/08 10:29:01;;;;;;;;;;;;;;;1.66;91.81;99909.19;5016715;28;1867;-88
2022/01/08 10:31:39;;;;;;;;;;;;;;;1.77;91.33;99911.06;5002807;28;1216;-92
2022/01/08 10:34:12;;;;;;;;;;;;;;;1.82;91.41;99903.06;4998868;28;1830;-91
2022/01/08 10:36:38;;;;;;;;;;;;;;;1.84;90.83;99906.34;4996995;28;1716;-90
2022/01/08 10:39:05;;;;;;;;;;;;;;;1.85;90.64;99908.81;4986071;28;1636;-91
2022/01/08 10:41:31;;;;;;;;;;;;;;;1.86;90.78;99904.22;4982432;28;1605;-92
2022/01/08 10:44:07;;;;;;;;;;;;;;;1.87;90.34;99905.88;4984242;28;1418;-92
2022/01/08 10:46:33;;;;;;;;;;;;;;;1.95;90.52;99907.38;4995193;28;1380;-92
2022/01/08 10:48:58;;;;;;;;;;;;;;;1.97;90.22;99899.84;4986823;28;1943;-92
2022/01/08 10:51:26;;;;;;;;;;;;;;;2.01;90.03;99903.72;4984113;28;1353;-89
2022/01/08 10:54:10;;;;;;;;;;;;;;;1.98;90.24;99906.88;5009877;28;1759;-90
2022/01/08 10:56:37;;;;;;;;;;;;;;;1.98;89.50;99899.59;5000438;28;1221;-91
2022/01/08 10:59:04;;;;;;;;;;;;;;;2.00;89.94;99893.97;4999809;28;1299;-90
2022/01/08 11:01:45;;;;;;;;;;;;;;;2.06;89.38;99895.72;5000441;28;1284;-88
2022/01/08 11:04:12;;;;;;;;;;;;;;;2.07;89.10;99894.66;4983378;28;1708;-89
2022/01/08 11:07:10;;;;;;;;;;;;;;;2.05;88.77;99892.19;4980459;28;1340;-90
2022/01/08 11:09:36;;;;;;;;;;;;;;;1.97;89.02;99883.66;4948583;28;1890;-90
2022/01/08 11:12:03;;;;;;;;;;;;;;;1.92;89.20;99884.38;4980794;28;1289;-92
2022/01/08 11:17:14;;;;;;;;;;;;;;;2.08;88.79;99863.91;4994049;28;1642;-91
2022/01/08 11:19:42;;;;;;;;;;;;;;;2.14;88.76;99858.34;5000112;28;1208;-90
2022/01/08 11:22:10;;;;;;;;;;;;;;;2.18;89.08;99856.81;5002168;28;1260;-86
2022/01/08 11:24:35;;;;;;;;;;;;;;;2.16;89.04;99860.81;5004898;28;1322;-92
2022/01/08 11:27:00;;;;;;;;;;;;;;;2.13;89.10;99847.78;5015113;28;1355;-92
2022/01/08 11:29:29;;;;;;;;;;;;;;;2.13;88.89;99837.00;5020672;28;1878;-94
2022/01/08 11:31:55;;;;;;;;;;;;;;;2.12;89.10;99838.09;5022270;28;1286;-93
2022/01/08 11:34:22;;;;;;;;;;;;;;;2.07;88.92;99830.69;5022726;28;1228;-93
2022/01/08 11:36:50;;;;;;;;;;;;;;;2.09;89.42;99833.97;5018984;28;1273;-93
2022/01/08 11:39:15;;;;;;;;;;;;;;;2.16;89.32;99821.16;5019054;28;1267;-93
2022/01/08 11:41:41;;;;;;;;;;;;;;;2.30;89.11;99823.56;5023439;28;1343;-93
2022/01/08 11:44:07;;;;;;;;;;;;;;;2.32;88.96;99816.84;5023333;28;1224;-95
2022/01/08 11:46:53;;;;;;;;;;;;;;;2.38;88.49;99813.19;5019191;28;1303;-94
2022/01/08 11:49:34;;;;;;;;;;;;;;;2.42;88.33;99803.50;5038354;28;1871;-93
2022/01/08 11:52:15;;;;;;;;;;;;;;;2.52;88.67;99797.47;5018672;28;1252;-94
2022/01/08 11:54:49;;;;;;;;;;;;;;;2.59;88.20;99803.53;5015941;28;1429;-93
2022/01/08 16:31:31;;;;;;;;;;;;;;;1.90;77.58;99334.13;5035667;28;1882;-91
2022/01/08 16:33:56;;;;;;;;;;;;;;;1.90;77.80;99336.84;5029413;28;1232;-91
2022/01/08 16:36:22;;;;;;;;;;;;;;;1.94;77.69;99317.44;5034180;28;1073;-92
2022/01/08 16:38:47;;;;;;;;;;;;;;;1.94;77.70;99312.88;5030829;28;1296;-92
2022/01/08 16:41:12;;;;;;;;;;;;;;;1.94;78.13;99312.06;5020794;28;1305;-92
2022/01/08 16:43:38;;;;;;;;;;;;;;;1.91;77.90;99305.28;5016010;28;1574;-92
2022/01/08 16:46:07;;;;;;;;;;;;;;;1.89;77.52;99294.72;4987217;28;1558;-93
2022/01/08 16:48:32;;;;;;;;;;;;;;;1.89;78.18;99286.63;4982755;28;1302;-92
2022/01/08 16:51:09;;;;;;;;;;;;;;;1.90;78.04;99273.97;4981589;28;1910;-92
2022/01/08 16:53:38;;;;;;;;;;;;;;;1.90;78.17;99273.97;4977218;28;1292;-91
2022/01/08 16:56:03;;;;;;;;;;;;;;;1.86;78.39;99252.09;4977306;28;1231;-91
2022/01/08 16:58:28;;;;;;;;;;;;;;;1.88;78.40;99243.72;4976709;28;1217;-90
2022/01/08 17:00:54;;;;;;;;;;;;;;;1.90;78.42;99226.22;4976856;28;1038;-90
2022/01/08 17:03:19;;;;;;;;;;;;;;;1.88;78.38;99214.84;4983540;28;1560;-90
2022/01/08 17:05:44;;;;;;;;;;;;;;;1.89;78.47;99210.28;4975290;28;1229;-90
2022/01/08 17:08:24;;;;;;;;;;;;;;;1.94;78.20;99199.53;4975618;28;1257;-90
2022/01/08 17:10:56;;;;;;;;;;;;;;;1.94;78.00;99201.44;4976770;28;1898;-90
2022/01/08 17:13:24;;;;;;;;;;;;;;;1.93;78.22;99183.59;4976581;28;1280;-91
2022/01/08 17:15:55;;;;;;;;;;;;;;;1.90;78.25;99183.03;4977386;28;1348;-91
2022/01/08 17:18:48;;;;;;;;;;;;;;;1.93;78.06;99189.81;4978919;28;1442;-90
2022/01/08 17:21:21;;;;;;;;;;;;;;;1.95;78.03;99184.97;4976759;28;1380;-91
2022/01/08 17:23:59;;;;;;;;;;;;;;;1.93;78.08;99186.31;4976524;28;1478;-90
2022/01/08 17:26:24;;;;;;;;;;;;;;;1.87;77.99;99183.53;4990207;28;1614;-90
2022/01/08 17:28:49;;;;;;;;;;;;;;;1.87;78.11;99180.06;4980605;28;1334;-91
2022/01/08 17:31:14;;;;;;;;;;;;;;;1.87;78.04;99172.75;4989625;28;1957;-90
2022/01/08 17:33:39;;;;;;;;;;;;;;;1.89;78.30;99159.00;4999766;28;1291;-90
2022/01/08 17:36:05;;;;;;;;;;;;;;;1.92;78.13;99155.00;4999918;28;1403;-90
2022/01/08 17:38:30;;;;;;;;;;;;;;;1.90;78.45;99155.25;5000311;28;1305;-90
2022/01/08 17:40:55;;;;;;;;;;;;;;;1.90;78.45;99147.97;5000457;28;1154;-91
2022/01/08 17:43:20;;;;;;;;;;;;;;;1.91;78.29;99154.19;4999637;28;1301;-91
2022/01/08 17:46:09;;;;;;;;;;;;;;;1.91;78.59;99140.69;4999674;28;1333;-90
2022/01/08 17:48:34;;;;;;;;;;;;;;;1.93;78.90;99137.72;5000255;28;1233;-91
2022/01/08 17:51:00;;;;;;;;;;;;;;;1.86;79.24;99136.06;5000055;28;1918;-90
2022/01/08 17:53:25;;;;;;;;;;;;;;;1.83;79.70;99122.28;4992164;28;1570;-89
2022/01/08 17:55:50;;;;;;;;;;;;;;;1.75;80.26;99126.25;4981148;28;1075;-90
2022/01/08 17:58:16;;;;;;;;;;;;;;;1.62;80.71;99113.19;4979971;28;1296;-90
2022/01/08 18:01:00;;;;;;;;;;;;;;;1.58;81.15;99104.00;4990627;28;1573;-90
2022/01/08 18:03:25;;;;;;;;;;;;;;;1.53;81.75;99110.13;4980379;28;1188;-90
2022/01/08 18:05:51;;;;;;;;;;;;;;;1.47;82.04;99100.38;4979008;28;1196;-90
2022/01/08 18:08:16;;;;;;;;;;;;;;;1.42;82.67;99088.75;4986785;28;1555;-90
2022/01/08 18:10:44;;;;;;;;;;;;;;;1.37;82.98;99078.72;4999506;28;1981;-90
2022/01/08 18:16:01;;;;;;;;;;;;;;;1.40;83.61;99061.22;5016273;28;1578;-90
2022/01/08 18:18:27;;;;;;;;;;;;;;;1.40;83.95;99051.25;4998951;28;1288;-90
2022/01/08 18:20:52;;;;;;;;;;;;;;;1.40;84.03;99042.34;4998976;28;1309;-90
2022/01/08 18:23:17;;;;;;;;;;;;;;;1.30;84.20;99042.25;4999373;28;1345;-90
2022/01/08 18:25:42;;;;;;;;;;;;;;;1.33;84.70;99030.97;4987256;28;1504;-90
2022/01/08 18:28:07;;;;;;;;;;;;;;;1.35;84.90;99039.63;4998455;28;1689;-90
2022/01/08 18:30:33;;;;;;;;;;;;;;;1.38;85.17;99018.34;4999086;28;1906;-90
2022/01/08 18:32:59;;;;;;;;;;;;;;;1.36;85.02;99011.59;4995050;28;1874;-90
2022/01/08 18:35:27;;;;;;;;;;;;;;;1.33;85.30;99004.00;4997167;28;1450;-90
2022/01/08 18:37:52;;;;;;;;;;;;;;;1.36;85.42;98990.81;4997892;28;1225;-89
2022/01/08 18:40:24;;;;;;;;;;;;;;;1.33;85.74;98991.34;4990218;28;1547;-90
2022/01/08 18:42:50;;;;;;;;;;;;;;;1.30;85.78;98978.38;4997826;28;1455;-90
2022/01/08 18:45:15;;;;;;;;;;;;;;;1.36;85.88;98976.56;4979591;28;1328;-90
2022/01/08 18:47:40;;;;;;;;;;;;;;;1.37;86.25;98961.97;4994365;28;1583;-90
2022/01/08 18:50:06;;;;;;;;;;;;;;;1.38;86.08;98950.13;5016061;28;1906;-90
2022/01/08 18:52:31;;;;;;;;;;;;;;;1.40;86.11;98948.00;4998693;28;1245;-90
2022/01/08 18:55:00;;;;;;;;;;;;;;;1.44;86.23;98946.41;4998728;28;1163;-90
2022/01/08 18:57:25;;;;;;;;;;;;;;;1.44;86.45;98931.06;4998688;28;1253;-90
2022/01/08 18:59:50;;;;;;;;;;;;;;;1.47;86.21;98924.31;4989341;28;1638;-91
2022/01/08 19:02:16;;;;;;;;;;;;;;;1.47;86.50;98925.13;4992673;28;1670;-91
2022/01/08 19:04:43;;;;;;;;;;;;;;;1.52;86.59;98924.38;4998375;28;1222;-90
2022/01/08 19:07:09;;;;;;;;;;;;;;;1.53;86.67;98909.81;4988084;28;1593;-90
2022/01/08 19:09:34;;;;;;;;;;;;;;;1.57;86.24;98902.00;4978865;28;1905;-91
2022/01/08 19:11:59;;;;;;;;;;;;;;;1.55;86.17;98898.75;4978952;28;1230;-90
2022/01/08 19:14:24;;;;;;;;;;;;;;;1.57;86.32;98894.72;4978769;28;1581;-91
2022/01/08 19:16:49;;;;;;;;;;;;;;;1.57;86.26;98881.25;4978896;28;1214;-91
2022/01/08 19:19:15;;;;;;;;;;;;;;;1.59;86.42;98870.19;4990230;28;1639;-91
2022/01/08 19:21:40;;;;;;;;;;;;;;;1.61;86.24;98852.69;4998060;28;967;-90
2022/01/08 19:24:05;;;;;;;;;;;;;;;1.63;86.31;98847.00;4988284;28;1578;-91
2022/01/08 19:26:31;;;;;;;;;;;;;;;1.61;86.19;98844.59;4978631;28;1171;-90
2022/01/08 19:28:57;;;;;;;;;;;;;;;1.60;86.25;98831.38;4978495;28;1312;-90
2022/01/08 19:31:37;;;;;;;;;;;;;;;1.64;86.34;98817.09;4995411;28;1886;-91
2022/01/08 19:34:03;;;;;;;;;;;;;;;1.65;86.26;98821.41;4978674;28;1270;-90
2022/01/08 19:36:28;;;;;;;;;;;;;;;1.62;86.12;98800.34;4988919;28;1606;-90
2022/01/08 19:38:54;;;;;;;;;;;;;;;1.59;86.38;98795.50;4997930;28;1307;-90
2022/01/08 19:41:20;;;;;;;;;;;;;;;1.64;86.18;98794.69;4986759;28;1554;-90